Time;durP1;ratioP1;P1;durP2;ratioP2;P2;SDS_P1;SDS_P2;PMS_P1;PMS_P2;Temp;Humidity;BMP_temperature;BMP_pressure;BME280_temperature;BME280_humidity;BME280_pressure;Samples;Min_cycle;Max_cycle;Signal;HPM_P1;HPM_P2
2021/10/06 00:01:04;;;;;;;16.30;9.40;;;;;;;15.02;61.50;98984.06;236042;1195;138886;-63
2021/10/06 00:06:08;;;;;;;14.50;9.40;;;;;;;14.90;61.68;98973.23;235975;1195;138481;-63
2021/10/06 00:11:11;;;;;;;14.90;9.80;;;;;;;14.77;61.57;98979.85;235221;1195;138368;-63
2021/10/06 00:16:15;;;;;;;14.10;8.60;;;;;;;14.66;61.65;98968.52;235709;1194;139072;-59
2021/10/06 00:21:20;;;;;;;15.20;8.20;;;;;;;14.62;61.74;98975.67;235935;1195;141328;-65
2021/10/06 00:26:23;;;;;;;13.60;8.50;;;;;;;14.63;62.01;98973.05;236266;1194;139439;-62
2021/10/06 00:31:26;;;;;;;15.60;8.60;;;;;;;14.64;62.15;98965.34;236441;1195;138357;-63
2021/10/06 00:36:29;;;;;;;15.50;9.00;;;;;;;14.63;62.27;98963.40;236021;1195;138691;-61
2021/10/06 00:41:33;;;;;;;13.90;8.10;;;;;;;14.64;62.41;98968.71;235896;1195;138945;-63
2021/10/06 00:46:36;;;;;;;12.20;8.20;;;;;;;14.62;62.38;98976.73;236190;1195;138841;-61
2021/10/06 00:51:39;;;;;;;15.80;8.50;;;;;;;14.57;62.37;98970.33;236310;1194;138834;-61
2021/10/06 00:56:43;;;;;;;14.20;8.10;;;;;;;14.55;62.39;98964.83;236281;1195;140149;-62
2021/10/06 01:01:46;;;;;;;12.20;8.10;;;;;;;14.59;62.54;98964.83;236208;1195;138423;-64
2021/10/06 01:06:49;;;;;;;12.20;6.70;;;;;;;14.63;62.48;98960.19;236195;1195;138887;-65
2021/10/06 01:11:54;;;;;;;11.00;6.60;;;;;;;14.71;62.62;98957.77;236122;1195;139348;-65
2021/10/06 01:16:57;;;;;;;17.10;7.10;;;;;;;14.83;62.81;98962.88;235921;1195;139546;-61
2021/10/06 01:22:01;;;;;;;13.60;7.00;;;;;;;14.93;62.83;98958.69;236391;1195;139504;-65
2021/10/06 01:27:04;;;;;;;11.90;7.40;;;;;;;15.07;62.72;98959.86;236271;1195;138655;-67
2021/10/06 01:32:17;;;;;;;13.40;6.80;;;;;;;15.13;62.60;98959.19;235948;1195;138968;-68
2021/10/06 01:37:20;;;;;;;12.90;7.80;;;;;;;15.18;62.54;98962.16;235664;1195;138478;-66
2021/10/06 01:42:23;;;;;;;14.20;8.50;;;;;;;15.21;62.43;98959.44;236036;1195;138640;-64
2021/10/06 01:47:27;;;;;;;11.50;7.30;;;;;;;15.18;62.35;98962.92;236320;1195;138711;-65
2021/10/06 01:52:30;;;;;;;12.80;7.60;;;;;;;15.14;62.39;98971.11;236246;1195;138386;-64
2021/10/06 01:57:33;;;;;;;11.80;6.90;;;;;;;15.07;62.62;98975.95;235707;1195;138951;-65
2021/10/06 02:02:36;;;;;;;14.60;7.20;;;;;;;15.06;62.77;98980.15;235959;1195;139360;-61
2021/10/06 02:07:40;;;;;;;10.50;6.60;;;;;;;15.10;62.71;98986.09;236235;1195;139156;-61
2021/10/06 02:12:43;;;;;;;11.60;6.80;;;;;;;15.10;62.92;98979.96;236336;1193;139138;-63
2021/10/06 02:17:46;;;;;;;14.50;7.00;;;;;;;15.09;62.83;98980.11;236446;1194;138938;-63
2021/10/06 02:22:50;;;;;;;10.00;6.40;;;;;;;15.08;62.64;98986.79;236140;1195;139093;-64
2021/10/06 02:27:53;;;;;;;11.20;6.00;;;;;;;15.05;62.69;98985.61;236136;1195;138699;-60
2021/10/06 02:32:56;;;;;;;15.20;7.00;;;;;;;15.01;62.78;98980.24;236517;1194;138992;-62
2021/10/06 02:38:00;;;;;;;12.00;6.70;;;;;;;14.97;62.76;98974.81;236330;1195;225987;-62
2021/10/06 02:43:03;;;;;;;10.70;6.70;;;;;;;14.92;62.88;98962.55;235605;1194;138923;-65
2021/10/06 02:48:07;;;;;;;9.10;6.10;;;;;;;14.87;62.97;98962.17;235856;1195;139940;-63
2021/10/06 02:53:10;;;;;;;7.30;5.50;;;;;;;14.86;63.02;98965.50;236094;1190;139611;-63
2021/10/06 02:58:13;;;;;;;13.90;6.80;;;;;;;14.87;63.08;98958.78;236334;1193;138919;-60
2021/10/06 03:03:16;;;;;;;13.30;7.00;;;;;;;14.88;63.35;98959.63;236152;1195;142255;-62
2021/10/06 03:08:19;;;;;;;10.40;6.80;;;;;;;14.91;63.34;98959.93;236348;1195;139304;-64
2021/10/06 03:13:22;;;;;;;13.10;7.10;;;;;;;14.92;63.30;98965.08;236483;1195;138686;-65
2021/10/06 03:18:26;;;;;;;10.00;6.80;;;;;;;14.92;63.23;98966.64;235390;1195;138904;-66
2021/10/06 03:23:29;;;;;;;9.50;6.80;;;;;;;14.91;63.39;98969.73;236314;1195;139068;-63
2021/10/06 03:28:32;;;;;;;16.20;6.90;;;;;;;14.92;63.40;98974.15;235962;1195;139169;-60
2021/10/06 03:33:35;;;;;;;8.30;6.10;;;;;;;14.90;63.49;98980.54;235837;1195;139132;-63
2021/10/06 03:38:38;;;;;;;9.70;6.10;;;;;;;14.90;63.53;98987.48;236141;1195;140351;-63
2021/10/06 03:43:41;;;;;;;10.10;6.60;;;;;;;14.95;63.65;98989.23;236331;1195;139275;-56
2021/10/06 03:48:45;;;;;;;14.40;7.30;;;;;;;15.04;63.78;99006.59;235441;1195;140462;-65
2021/10/06 03:53:48;;;;;;;11.30;7.40;;;;;;;15.09;63.75;98999.20;236474;1194;141111;-65
2021/10/06 03:58:51;;;;;;;39.60;28.30;;;;;;;15.11;63.82;98997.78;236444;1195;139267;-65
2021/10/06 04:03:54;;;;;;;23.80;16.40;;;;;;;15.22;64.18;99007.05;236043;1195;139228;-62
2021/10/06 04:08:58;;;;;;;18.60;8.50;;;;;;;15.27;64.04;99009.86;236188;1195;139334;-63
2021/10/06 04:14:01;;;;;;;295.00;223.80;;;;;;;15.24;63.81;99019.83;236158;1195;138346;-63
2021/10/06 04:19:04;;;;;;;18.20;11.80;;;;;;;15.18;63.77;99022.44;236253;1195;139399;-63
2021/10/06 04:24:07;;;;;;;11.30;7.30;;;;;;;15.20;63.91;99027.81;236476;1195;140621;-63
2021/10/06 04:29:10;;;;;;;13.20;7.60;;;;;;;15.19;63.84;99030.92;235992;1195;139433;-67
2021/10/06 04:34:13;;;;;;;19.50;8.40;;;;;;;15.15;63.79;99034.84;236209;1195;139120;-62
2021/10/06 04:39:16;;;;;;;223.50;166.40;;;;;;;15.07;63.91;99039.36;235405;1195;138900;-65
2021/10/06 04:44:19;;;;;;;12.90;10.20;;;;;;;15.09;64.07;99042.26;236256;1195;139344;-64
2021/10/06 04:49:23;;;;;;;11.20;7.50;;;;;;;15.08;64.14;99044.66;236137;1194;138844;-64
2021/10/06 04:54:26;;;;;;;11.60;7.80;;;;;;;15.04;63.91;99043.95;236039;1195;139283;-64
2021/10/06 04:59:29;;;;;;;9.80;6.60;;;;;;;14.98;64.08;99044.80;236194;1194;139725;-62
2021/10/06 05:04:32;;;;;;;10.00;7.20;;;;;;;14.98;64.34;99053.16;236236;1195;139633;-62
2021/10/06 05:09:35;;;;;;;308.50;203.30;;;;;;;15.04;64.31;99054.30;236001;1194;139598;-62
2021/10/06 05:14:39;;;;;;;18.90;11.30;;;;;;;15.09;64.42;99053.69;236000;1195;139099;-64
2021/10/06 05:19:42;;;;;;;12.40;8.10;;;;;;;15.08;64.11;99058.11;236258;1195;138682;-65
2021/10/06 05:24:46;;;;;;;19.30;8.30;;;;;;;15.01;63.98;99058.82;236374;1193;138679;-65
2021/10/06 05:29:49;;;;;;;57.30;31.60;;;;;;;14.97;64.24;99060.77;236177;1193;139541;-68
2021/10/06 05:34:53;;;;;;;25.60;18.90;;;;;;;15.44;66.83;99059.40;236341;1193;139947;-65
2021/10/06 05:39:56;;;;;;;16.20;8.10;;;;;;;15.79;64.97;99068.02;236339;1193;139990;-67
2021/10/06 05:44:59;;;;;;;11.80;7.40;;;;;;;15.71;64.17;99082.44;236402;1193;138879;-64
2021/10/06 05:50:04;;;;;;;15.40;8.40;;;;;;;15.60;64.07;99085.15;236557;1193;139544;-64
2021/10/06 05:55:07;;;;;;;11.70;8.80;;;;;;;15.42;63.93;99090.91;236470;1194;138640;-65
2021/10/06 06:00:11;;;;;;;183.20;116.60;;;;;;;15.25;64.41;99101.52;236473;1195;138907;-64
2021/10/06 06:05:16;;;;;;;13.60;8.20;;;;;;;15.21;64.70;99106.34;236107;1195;140096;-65
2021/10/06 06:10:19;;;;;;;11.20;7.20;;;;;;;15.15;64.63;99116.47;235671;1195;139690;-65
2021/10/06 06:15:23;;;;;;;17.20;8.80;;;;;;;15.09;64.93;99121.99;235999;1195;139202;-65
2021/10/06 06:20:27;;;;;;;18.60;8.90;;;;;;;14.99;65.05;99127.59;236529;1194;139635;-63
2021/10/06 06:25:30;;;;;;;14.30;9.00;;;;;;;14.93;65.46;99131.98;235980;1195;139731;-66
2021/10/06 06:30:33;;;;;;;12.20;9.10;;;;;;;14.91;65.69;99141.45;235918;1195;138681;-69
2021/10/06 06:35:36;;;;;;;14.80;8.60;;;;;;;14.88;65.89;99134.36;235763;1193;138964;-64
2021/10/06 06:40:41;;;;;;;19.10;12.60;;;;;;;14.85;65.85;99134.58;236200;1194;140466;-70
2021/10/06 06:45:44;;;;;;;15.90;8.00;;;;;;;14.90;66.08;99139.02;236120;1195;139325;-66
2021/10/06 06:50:53;;;;;;;17.40;7.90;;;;;;;14.90;66.36;99142.96;236313;1193;139536;-65
2021/10/06 06:55:58;;;;;;;14.60;8.40;;;;;;;14.93;66.33;99147.91;236257;1195;138945;-61
2021/10/06 07:01:01;;;;;;;12.20;7.70;;;;;;;14.94;66.50;99152.11;235972;1193;140692;-67
2021/10/06 07:06:04;;;;;;;13.80;7.20;;;;;;;14.96;66.56;99162.16;236074;1195;138689;-64
2021/10/06 07:11:08;;;;;;;26.90;15.90;;;;;;;14.96;66.47;99166.60;235703;1195;138898;-64
2021/10/06 07:16:11;;;;;;;13.70;8.00;;;;;;;14.97;66.45;99167.59;235222;1195;139311;-64
2021/10/06 07:21:14;;;;;;;11.30;8.40;;;;;;;14.93;66.61;99170.92;235825;1195;138947;-65
2021/10/06 07:26:17;;;;;;;16.60;8.80;;;;;;;14.91;66.66;99173.39;236014;1194;139015;-63
2021/10/06 07:31:24;;;;;;;13.40;8.70;;;;;;;14.89;66.76;99184.13;236115;1195;139016;-61
2021/10/06 07:36:28;;;;;;;10.30;7.70;;;;;;;14.85;66.86;99194.36;236093;1195;138892;-64
2021/10/06 07:41:32;;;;;;;13.10;7.60;;;;;;;14.86;67.13;99210.57;235644;1195;139203;-65
2021/10/06 07:46:35;;;;;;;12.40;8.00;;;;;;;14.98;67.21;99204.86;235752;1195;139932;-64
2021/10/06 07:51:39;;;;;;;15.20;9.30;;;;;;;15.00;67.20;99202.52;235818;1193;139397;-63
2021/10/06 07:56:42;;;;;;;18.00;10.50;;;;;;;15.01;67.02;99209.66;236311;1193;138881;-62
2021/10/06 08:01:45;;;;;;;22.80;10.50;;;;;;;14.96;67.15;99215.55;236308;1195;140592;-63
2021/10/06 08:06:55;;;;;;;17.90;10.10;;;;;;;14.94;67.13;99219.13;235944;1194;140774;-64
2021/10/06 08:11:59;;;;;;;331.00;264.10;;;;;;;14.96;67.51;99218.75;235661;1195;139598;-62
2021/10/06 08:17:02;;;;;;;25.20;12.70;;;;;;;15.04;67.58;99216.87;236284;1194;139781;-62
2021/10/06 08:22:06;;;;;;;18.40;11.30;;;;;;;15.07;67.62;99217.91;236479;1193;139496;-64
2021/10/06 08:27:11;;;;;;;21.50;11.80;;;;;;;15.09;67.50;99219.01;236047;1193;139765;-66
2021/10/06 08:32:14;;;;;;;16.90;11.50;;;;;;;15.13;67.57;99215.27;235336;1195;138830;-66
2021/10/06 08:37:17;;;;;;;473.90;356.90;;;;;;;15.13;67.39;99226.18;235483;1195;139172;-65
2021/10/06 08:42:21;;;;;;;20.70;12.60;;;;;;;15.22;67.83;99239.45;235826;1195;140027;-64
2021/10/06 08:47:25;;;;;;;23.70;11.00;;;;;;;15.29;67.99;99241.90;236157;1195;139556;-64
2021/10/06 08:52:28;;;;;;;19.30;11.20;;;;;;;15.34;67.76;99246.88;236188;1195;139834;-65
2021/10/06 08:57:32;;;;;;;23.00;10.80;;;;;;;15.35;67.72;99246.10;236265;1195;139057;-63
2021/10/06 09:02:40;;;;;;;17.30;11.20;;;;;;;15.29;67.72;99249.59;236281;1193;140996;-65
2021/10/06 09:07:57;;;;;;;16.80;10.30;;;;;;;15.22;67.73;99244.23;236521;1193;139538;-63
2021/10/06 09:13:07;;;;;;;13.40;9.90;;;;;;;15.21;68.00;99243.77;236498;1193;139967;-64
2021/10/06 09:18:16;;;;;;;19.70;11.50;;;;;;;15.24;68.25;99241.95;235924;1194;138892;-65
2021/10/06 09:23:21;;;;;;;16.50;11.80;;;;;;;15.27;68.36;99241.86;235898;1195;138835;-63
2021/10/06 09:28:42;;;;;;;17.90;13.20;;;;;;;15.31;68.64;99253.01;235706;1194;139578;-67
2021/10/06 09:33:54;;;;;;;20.90;14.30;;;;;;;15.32;68.50;99260.98;236119;1195;139049;-63
2021/10/06 09:39:08;;;;;;;19.60;13.40;;;;;;;15.31;68.37;99267.91;236112;1195;139325;-66
2021/10/06 09:44:21;;;;;;;17.20;13.00;;;;;;;15.31;68.60;99265.89;236325;1195;139577;-69
2021/10/06 09:49:37;;;;;;;60.00;34.00;;;;;;;15.39;69.09;99264.21;235407;1195;139786;-66
2021/10/06 09:54:47;;;;;;;24.20;14.40;;;;;;;15.55;68.91;99256.31;235908;1195;138768;-69
2021/10/06 09:59:51;;;;;;;24.00;14.60;;;;;;;15.53;68.82;99255.20;235879;1193;139145;-65
2021/10/06 10:04:58;;;;;;;22.60;12.60;;;;;;;15.50;68.85;99261.77;235893;1193;140339;-67
2021/10/06 10:10:05;;;;;;;96.70;58.60;;;;;;;15.48;68.93;99262.75;235750;1195;139900;-67
2021/10/06 10:15:10;;;;;;;23.00;14.20;;;;;;;15.54;69.16;99262.89;236065;1194;140936;-65
2021/10/06 10:20:15;;;;;;;20.40;12.90;;;;;;;15.56;69.09;99262.55;236587;1193;139450;-63
2021/10/06 10:25:21;;;;;;;497.20;387.00;;;;;;;15.51;69.12;99270.79;236246;1194;139072;-67
2021/10/06 10:30:47;;;;;;;15.50;11.20;;;;;;;15.51;69.47;99277.05;235845;1195;139354;-66
2021/10/06 10:43:27;;;;;;;27.00;16.00;;;;;;;15.80;69.87;99277.65;235936;1195;139292;-61
2021/10/06 10:48:58;;;;;;;19.00;11.30;;;;;;;15.89;69.79;99265.27;235147;1198;138715;-65
2021/10/06 10:54:07;;;;;;;17.80;10.40;;;;;;;15.82;69.10;99261.21;235893;1195;139281;-65
2021/10/06 10:59:20;;;;;;;18.50;9.80;;;;;;;15.69;68.79;99268.48;236483;1193;140047;-65
2021/10/06 11:04:29;;;;;;;18.30;11.10;;;;;;;15.63;69.12;99272.36;236420;1195;139044;-65
2021/10/06 11:09:32;;;;;;;26.80;15.10;;;;;;;15.60;69.30;99278.48;236288;1195;138829;-62
2021/10/06 11:14:38;;;;;;;511.20;324.50;;;;;;;15.58;69.36;99282.90;236171;1195;139281;-67
2021/10/06 11:19:48;;;;;;;32.20;17.50;;;;;;;15.62;69.72;99283.49;235184;1195;139062;-66
2021/10/06 11:24:54;;;;;;;25.20;15.30;;;;;;;15.68;69.45;99290.43;235804;1195;139891;-63
2021/10/06 11:29:58;;;;;;;52.00;37.00;;;;;;;15.70;69.25;99287.36;236205;1194;139918;-65
2021/10/06 11:35:01;;;;;;;24.30;14.60;;;;;;;15.74;69.42;99282.73;236100;1194;138971;-72
2021/10/06 11:40:13;;;;;;;24.90;15.00;;;;;;;15.70;69.15;99278.98;236119;1193;139123;-64
2021/10/06 11:45:19;;;;;;;24.90;14.30;;;;;;;15.63;69.05;99282.19;235999;1195;138755;-64
2021/10/06 11:50:23;;;;;;;20.80;14.90;;;;;;;15.58;69.04;99283.61;236349;1194;139913;-64
2021/10/06 11:55:27;;;;;;;30.00;17.00;;;;;;;15.58;69.16;99281.64;236474;1194;139789;-67
2021/10/06 12:00:31;;;;;;;30.60;18.10;;;;;;;15.60;69.42;99281.67;236145;1195;139325;-64
2021/10/06 12:05:44;;;;;;;339.80;233.40;;;;;;;15.59;69.33;99279.26;236202;1195;138694;-63
2021/10/06 12:10:48;;;;;;;32.40;19.60;;;;;;;15.65;69.57;99274.17;236412;1194;139309;-61
2021/10/06 12:15:51;;;;;;;27.80;17.50;;;;;;;15.69;69.46;99268.00;236259;1194;140079;-63
2021/10/06 12:20:55;;;;;;;24.40;14.00;;;;;;;15.70;69.31;99269.27;236232;1194;139249;-64
2021/10/06 12:25:58;;;;;;;15.20;11.00;;;;;;;15.69;69.42;99258.88;236123;1195;138640;-63
2021/10/06 12:31:04;;;;;;;17.30;10.90;;;;;;;15.66;69.53;99259.93;235988;1195;139004;-65
2021/10/06 12:36:08;;;;;;;11.80;8.80;;;;;;;15.65;69.80;99261.46;235920;1195;140213;-61
2021/10/06 12:41:15;;;;;;;14.50;9.10;;;;;;;15.65;69.58;99260.04;236447;1193;139875;-62
2021/10/06 12:46:24;;;;;;;16.40;10.00;;;;;;;15.66;69.76;99260.48;236091;1195;139275;-65
2021/10/06 12:51:30;;;;;;;17.50;10.30;;;;;;;15.70;69.84;99271.29;236386;1193;140115;-63
2021/10/06 12:56:40;;;;;;;14.80;9.90;;;;;;;15.70;69.91;99275.39;236519;1193;138774;-62
2021/10/06 13:01:47;;;;;;;11.70;7.60;;;;;;;15.64;69.57;99282.08;236042;1193;138610;-62
2021/10/06 13:06:52;;;;;;;15.40;9.10;;;;;;;15.58;69.40;99282.40;235659;1195;139369;-63
2021/10/06 13:11:58;;;;;;;13.60;8.80;;;;;;;15.54;69.27;99287.34;236288;1193;138695;-61
2021/10/06 13:17:01;;;;;;;12.20;8.60;;;;;;;15.47;69.37;99288.42;236250;1195;139020;-63
2021/10/06 13:22:05;;;;;;;15.30;9.50;;;;;;;15.40;69.09;99291.71;236331;1194;139002;-63
2021/10/06 13:27:10;;;;;;;13.00;8.50;;;;;;;15.30;69.31;99282.75;236188;1195;138657;-65
2021/10/06 13:32:13;;;;;;;14.60;8.50;;;;;;;15.23;69.33;99285.26;236237;1193;139163;-63
2021/10/06 13:37:17;;;;;;;19.40;9.60;;;;;;;15.21;69.70;99300.09;236204;1194;141430;-63
2021/10/06 13:42:20;;;;;;;14.10;9.30;;;;;;;15.22;69.76;99304.48;236017;1195;139166;-61
2021/10/06 13:47:24;;;;;;;16.20;9.80;;;;;;;15.23;69.93;99304.08;236121;1195;139543;-60
2021/10/06 13:52:27;;;;;;;16.50;8.80;;;;;;;15.20;69.80;99311.79;236158;1194;139357;-62
2021/10/06 13:57:31;;;;;;;12.40;8.30;;;;;;;15.19;69.63;99319.20;236481;1194;141066;-61
2021/10/06 14:02:35;;;;;;;13.30;9.20;;;;;;;15.18;69.68;99314.44;236375;1195;139240;-60
2021/10/06 14:07:39;;;;;;;11.80;9.20;;;;;;;15.18;69.74;99316.41;236595;1194;138555;-60
2021/10/06 14:12:42;;;;;;;11.70;9.60;;;;;;;15.17;69.83;99321.13;236601;1195;138723;-61
2021/10/06 14:17:46;;;;;;;13.70;8.40;;;;;;;15.13;69.61;99320.02;236683;1195;138635;-63
2021/10/06 14:22:51;;;;;;;13.10;8.60;;;;;;;15.09;69.58;99320.52;236548;1195;139273;-62
2021/10/06 14:27:55;;;;;;;14.50;9.40;;;;;;;15.06;69.47;99329.67;236779;1195;138976;-61
2021/10/06 14:32:59;;;;;;;12.30;8.40;;;;;;;15.02;69.69;99331.73;236576;1194;138496;-63
2021/10/06 14:38:04;;;;;;;17.60;10.30;;;;;;;15.00;69.84;99336.54;236655;1195;151374;-64
2021/10/06 14:43:08;;;;;;;15.60;10.10;;;;;;;14.94;69.69;99335.95;236617;1194;139653;-64
2021/10/06 14:48:12;;;;;;;58.40;40.40;;;;;;;14.92;69.93;99339.33;236346;1189;139424;-62
2021/10/06 14:53:15;;;;;;;14.00;10.00;;;;;;;14.97;70.00;99338.55;236279;1195;138904;-64
2021/10/06 14:58:19;;;;;;;28.60;20.90;;;;;;;14.94;69.92;99339.69;236406;1195;138991;-62
2021/10/06 15:03:22;;;;;;;17.60;12.00;;;;;;;15.07;70.99;99343.15;236529;1194;139549;-64
2021/10/06 15:08:29;;;;;;;15.10;9.80;;;;;;;15.13;70.18;99347.52;236685;1195;139572;-60
2021/10/06 15:13:32;;;;;;;16.90;10.10;;;;;;;15.08;69.94;99351.27;236554;1194;138509;-60
2021/10/06 15:18:36;;;;;;;15.40;9.80;;;;;;;15.02;69.91;99355.50;236743;1194;138803;-64
2021/10/06 15:23:39;;;;;;;13.70;10.50;;;;;;;14.92;69.81;99354.31;236629;1194;140379;-61
2021/10/06 15:28:43;;;;;;;13.30;9.00;;;;;;;14.84;70.07;99356.31;236775;1193;138632;-62
2021/10/06 15:33:46;;;;;;;23.80;15.40;;;;;;;14.80;70.04;99358.27;236691;1194;139097;-64
2021/10/06 15:38:50;;;;;;;50.60;38.20;;;;;;;14.87;70.85;99361.83;236706;1194;139299;-64
2021/10/06 15:43:53;;;;;;;17.50;10.20;;;;;;;14.98;71.02;99360.64;236668;1193;138763;-61
2021/10/06 15:48:59;;;;;;;12.50;9.90;;;;;;;15.24;71.10;99367.62;236139;1194;139242;-65
2021/10/06 15:54:03;;;;;;;15.70;10.00;;;;;;;15.15;70.35;99371.84;235871;1195;138587;-63
2021/10/06 15:59:07;;;;;;;235.70;171.80;;;;;;;15.10;70.55;99369.92;236349;1195;140105;-62
2021/10/06 16:04:11;;;;;;;20.50;13.50;;;;;;;15.26;71.08;99373.20;235667;1195;139253;-61
2021/10/06 16:09:14;;;;;;;15.70;10.80;;;;;;;15.26;70.39;99376.37;236167;1195;139098;-65
2021/10/06 16:14:18;;;;;;;22.40;12.40;;;;;;;15.12;70.04;99388.71;235598;1194;140391;-65
2021/10/06 16:19:22;;;;;;;19.10;12.70;;;;;;;14.97;70.00;99393.98;236060;1195;139532;-64
2021/10/06 16:24:26;;;;;;;17.20;13.00;;;;;;;14.86;70.05;99399.44;236078;1195;140442;-61
2021/10/06 16:29:29;;;;;;;19.50;13.90;;;;;;;14.80;70.37;99403.80;236342;1195;140450;-65
2021/10/06 16:34:33;;;;;;;20.40;14.40;;;;;;;14.79;70.57;99407.46;236212;1194;140606;-64
2021/10/06 16:39:38;;;;;;;24.50;16.30;;;;;;;14.79;70.40;99408.35;235986;1194;140053;-64
2021/10/06 16:44:42;;;;;;;21.70;14.80;;;;;;;14.73;70.63;99417.55;236134;1195;138959;-63
2021/10/06 16:49:45;;;;;;;20.90;14.30;;;;;;;14.71;70.64;99418.59;236308;1194;139635;-66
2021/10/06 16:55:09;;;;;;;249.80;180.60;;;;;;;14.77;71.05;99427.40;236066;1194;141836;-62
2021/10/06 17:00:14;;;;;;;23.80;15.50;;;;;;;14.87;71.58;99425.41;236250;1193;139463;-61
2021/10/06 17:05:18;;;;;;;26.80;15.90;;;;;;;14.94;71.02;99429.58;236539;1187;138589;-65
2021/10/06 17:10:21;;;;;;;19.10;13.30;;;;;;;14.83;70.64;99426.61;236106;1195;138579;-61
2021/10/06 17:15:25;;;;;;;19.60;12.90;;;;;;;14.81;70.81;99436.08;236273;1193;141125;-64
2021/10/06 17:20:29;;;;;;;18.90;14.00;;;;;;;14.78;70.74;99439.67;236167;1195;139318;-64
2021/10/06 17:25:33;;;;;;;24.30;14.30;;;;;;;14.69;70.57;99445.33;235864;1194;139338;-65
2021/10/06 17:30:39;;;;;;;19.10;14.50;;;;;;;14.65;70.81;99446.17;236027;1195;140488;-63
2021/10/06 17:35:42;;;;;;;20.00;13.00;;;;;;;14.64;70.81;99447.77;236067;1193;138930;-65
2021/10/06 17:40:47;;;;;;;79.50;54.10;;;;;;;14.59;70.75;99452.16;236504;1195;139485;-63
2021/10/06 17:45:50;;;;;;;29.40;16.00;;;;;;;14.60;71.01;99455.65;236105;1195;139988;-61
2021/10/06 17:50:54;;;;;;;312.90;202.60;;;;;;;14.57;70.82;99460.33;236505;1193;139754;-62
2021/10/06 17:55:57;;;;;;;28.60;20.70;;;;;;;14.54;70.90;99462.99;236457;1193;139144;-63
2021/10/06 18:01:02;;;;;;;27.00;18.80;;;;;;;14.48;70.79;99452.36;236194;1195;140392;-61
2021/10/06 18:06:05;;;;;;;21.90;15.90;;;;;;;14.41;70.99;99444.98;236183;1194;138929;-61
2021/10/06 18:11:09;;;;;;;19.90;13.60;;;;;;;14.39;70.97;99454.73;236511;1195;140198;-61
2021/10/06 18:16:15;;;;;;;24.30;15.20;;;;;;;14.41;70.98;99457.45;236323;1195;139238;-62
2021/10/06 18:21:19;;;;;;;18.00;15.10;;;;;;;14.44;71.10;99459.75;236031;1194;138876;-60
2021/10/06 18:26:23;;;;;;;18.30;14.60;;;;;;;14.38;70.86;99467.11;235981;1195;230066;-63
2021/10/06 18:31:30;;;;;;;16.20;12.90;;;;;;;14.31;70.94;99471.93;236100;1195;139284;-62
2021/10/06 18:36:38;;;;;;;18.20;12.70;;;;;;;14.28;70.85;99479.30;236294;1195;139666;-63
2021/10/06 18:41:41;;;;;;;21.40;13.40;;;;;;;14.28;71.08;99486.84;236448;1195;139507;-64
2021/10/06 18:46:45;;;;;;;20.10;14.50;;;;;;;14.26;70.94;99491.77;236397;1195;139320;-61
2021/10/06 18:51:51;;;;;;;20.60;14.10;;;;;;;14.22;70.93;99494.13;235973;1195;138876;-62
2021/10/06 18:56:54;;;;;;;20.20;14.10;;;;;;;14.15;70.87;99488.91;236285;1194;139497;-63
2021/10/06 19:01:58;;;;;;;20.30;13.00;;;;;;;14.13;71.03;99487.63;236466;1193;139481;-64
2021/10/06 19:07:06;;;;;;;16.70;13.70;;;;;;;14.14;71.16;99490.25;236000;1195;142703;-62
2021/10/06 19:12:09;;;;;;;18.40;14.00;;;;;;;14.16;71.17;99490.29;236338;1194;138777;-68
2021/10/06 19:17:16;;;;;;;20.50;14.80;;;;;;;14.14;71.15;99492.05;236417;1195;139171;-63
2021/10/06 19:22:20;;;;;;;23.00;13.30;;;;;;;14.13;71.14;99509.08;236245;1195;138754;-63
2021/10/06 19:27:23;;;;;;;17.70;13.00;;;;;;;14.09;70.96;99515.92;236163;1195;139990;-63
2021/10/06 19:32:27;;;;;;;20.00;14.10;;;;;;;14.04;71.07;99519.84;236197;1195;139326;-65
2021/10/06 19:37:31;;;;;;;21.70;15.20;;;;;;;14.09;71.37;99523.09;235734;1193;138834;-67
2021/10/06 19:42:36;;;;;;;21.20;15.00;;;;;;;14.10;71.23;99529.05;235819;1195;139316;-67
2021/10/06 19:47:44;;;;;;;17.10;13.60;;;;;;;14.06;71.08;99529.89;236410;1193;139619;-61
2021/10/06 19:52:48;;;;;;;19.60;13.50;;;;;;;14.05;71.26;99538.91;236535;1194;139163;-64
2021/10/06 19:57:52;;;;;;;23.90;15.60;;;;;;;14.03;71.22;99536.30;236088;1195;139018;-68
2021/10/06 20:02:55;;;;;;;21.70;16.30;;;;;;;14.03;71.30;99540.79;236382;1194;139004;-66
2021/10/06 20:08:00;;;;;;;22.40;16.30;;;;;;;14.03;71.38;99545.95;236040;1195;138770;-62
2021/10/06 20:13:07;;;;;;;21.10;14.60;;;;;;;14.02;71.49;99547.11;236253;1195;139130;-62
2021/10/06 20:18:11;;;;;;;24.20;15.60;;;;;;;14.03;71.48;99547.56;236149;1194;139879;-66
2021/10/06 20:23:14;;;;;;;23.20;17.00;;;;;;;14.03;71.41;99550.10;236268;1195;139064;-65
2021/10/06 20:28:19;;;;;;;22.40;16.90;;;;;;;14.06;71.57;99547.35;236261;1195;139373;-66
2021/10/06 20:33:29;;;;;;;24.30;17.00;;;;;;;14.07;71.56;99543.05;235759;1194;138508;-60
2021/10/06 20:38:33;;;;;;;21.40;14.70;;;;;;;14.05;71.45;99545.12;235593;1194;139244;-63
2021/10/06 20:43:37;;;;;;;21.40;13.10;;;;;;;14.04;71.42;99538.08;236107;1195;139844;-65
2021/10/06 20:48:40;;;;;;;17.60;13.60;;;;;;;14.07;71.58;99527.18;236222;1194;140540;-65
2021/10/06 20:53:45;;;;;;;21.50;15.00;;;;;;;14.11;71.68;99526.30;236160;1195;139240;-60
2021/10/06 20:58:48;;;;;;;26.80;16.40;;;;;;;14.11;71.57;99529.22;236458;1189;139166;-63
2021/10/06 21:03:52;;;;;;;23.20;15.90;;;;;;;14.04;71.37;99531.10;235920;1195;139858;-62
2021/10/06 21:08:56;;;;;;;19.10;14.50;;;;;;;13.97;71.36;99541.58;235485;1195;139641;-65
2021/10/06 21:13:59;;;;;;;21.50;14.00;;;;;;;13.99;71.67;99552.33;235781;1189;139662;-62
2021/10/06 21:19:06;;;;;;;19.30;13.30;;;;;;;14.01;71.64;99558.77;236103;1195;138936;-63
2021/10/06 21:24:10;;;;;;;19.40;13.80;;;;;;;14.00;71.53;99565.11;236222;1195;139246;-62
2021/10/06 21:29:13;;;;;;;16.50;12.20;;;;;;;13.95;71.55;99566.49;236513;1194;138960;-66
2021/10/06 21:34:17;;;;;;;16.80;12.30;;;;;;;13.93;71.55;99572.87;236452;1193;142613;-65
2021/10/06 21:39:20;;;;;;;17.60;13.10;;;;;;;13.92;71.53;99575.46;236435;1194;139444;-65
2021/10/06 21:44:24;;;;;;;19.00;13.50;;;;;;;13.95;71.54;99573.79;235920;1195;138811;-60
2021/10/06 21:49:27;;;;;;;22.30;14.10;;;;;;;13.96;71.81;99571.22;236101;1195;138831;-67
2021/10/06 21:54:31;;;;;;;17.70;13.40;;;;;;;13.98;71.61;99570.08;235725;1195;138602;-62
2021/10/06 21:59:34;;;;;;;17.50;13.40;;;;;;;13.98;71.79;99570.59;236119;1195;139334;-73
2021/10/06 22:04:38;;;;;;;20.70;14.20;;;;;;;13.98;71.69;99568.42;235808;1195;139804;-63
2021/10/06 22:09:41;;;;;;;24.80;15.80;;;;;;;13.99;71.79;99568.56;236307;1194;138805;-65
2021/10/06 22:14:45;;;;;;;26.60;16.80;;;;;;;13.99;71.82;99565.20;236340;1194;140044;-63
2021/10/06 22:19:49;;;;;;;19.90;15.30;;;;;;;13.94;71.61;99568.67;236185;1195;139118;-62
2021/10/06 22:24:52;;;;;;;25.70;15.80;;;;;;;13.90;71.79;99577.67;236052;1195;139410;-62
2021/10/06 22:29:56;;;;;;;25.00;16.20;;;;;;;13.96;71.90;99577.31;236504;1194;139377;-65
2021/10/06 22:35:00;;;;;;;28.70;18.60;;;;;;;13.96;71.92;99578.54;236638;1186;138430;-61
2021/10/06 22:40:05;;;;;;;24.80;17.80;;;;;;;13.93;71.81;99581.40;236407;1195;139535;-65
2021/10/06 22:45:09;;;;;;;21.10;15.00;;;;;;;13.90;71.86;99589.47;236399;1195;139790;-65
2021/10/06 22:50:15;;;;;;;19.80;14.90;;;;;;;13.89;71.79;99595.61;236144;1194;140475;-61
2021/10/06 22:55:18;;;;;;;19.00;14.80;;;;;;;13.88;71.98;99593.33;236146;1193;139807;-61
2021/10/06 23:00:22;;;;;;;18.40;14.30;;;;;;;13.91;72.06;99594.59;236607;1193;139023;-62